Polar Bear — ZMA2072 — position and weather

sailwx.info

Track history (hours):
 
Tides and Currents Weather Stations Pressure Air Temp Water Temp Dewpoint Dewpoint Depression Visibility Wind Speed Wind Dir Waves Ship Positions

Polar Bear

Last reported at 2015-Sep-21 21:08 UTC. Time now 2016-Feb-08 18:54 UTC.
Position N 49°15' W 123°34'.
Warning: this ship's position is months out of date.

Length 28 m; draft 2.3 m.

Type: Pleasure craft. MMSI: 512172000.

Date/timePositionNaut miles runAvg speedWind from/ knotsBaromVisibWave heightAir tempDewpointWater temp
2015-Sep-21 21:08N 49°15' W 123°34'13 0.6
2015-Sep-20 22:33N 49°12' W 123°53'9 9.0
2015-Sep-20 21:34N 49°14' W 123°40'9 9.4
2015-Sep-20 20:33N 49°16' W 123°25'9 9.1
2015-Sep-20 19:34N 49°17' W 123°12'3 3.1
2015-Sep-20 18:33N 49°16' W 123°07'0 0.0
2015-Sep-20 17:33N 49°16' W 123°07'0 0.0
2015-Sep-20 16:33N 49°16' W 123°07'0 0.0
2015-Sep-20 15:33N 49°16' W 123°07'0 0.0
2015-Sep-20 14:33N 49°16' W 123°07'0 0.0
2015-Sep-20 13:33N 49°16' W 123°07'0 0.0
2015-Sep-20 12:33N 49°16' W 123°07'0 0.0
2015-Sep-20 11:33N 49°16' W 123°07'0 0.0
2015-Sep-20 10:33N 49°16' W 123°07'0 0.0
2015-Sep-20 09:33N 49°16' W 123°07'0 0.0
2015-Sep-20 08:33N 49°16' W 123°07'0 0.0
2015-Sep-20 07:33N 49°16' W 123°07'0 0.0
2015-Sep-20 06:33N 49°16' W 123°07'6 5.7
2015-Sep-20 05:33N 49°20' W 123°14'5 4.8
2015-Sep-20 04:33N 49°23' W 123°20'0 0.0
2015-Sep-20 03:33N 49°23' W 123°20'0 0.1
2015-Sep-20 02:33N 49°23' W 123°20'8 7.5
2015-Sep-20 01:33N 49°19' W 123°10'3 2.9
2015-Sep-20 00:30N 49°16' W 123°07'0 0.0
2015-Sep-19 23:33N 49°16' W 123°07'0 0.0
2015-Sep-19 22:33N 49°16' W 123°07'0 0.0
2015-Sep-19 21:30N 49°16' W 123°07'0 0.0
2015-Sep-19 20:33N 49°16' W 123°07'0 0.0
2015-Sep-19 19:33N 49°16' W 123°07'0 0.0
2015-Sep-19 18:33N 49°16' W 123°07'0 0.0
2015-Sep-19 17:33N 49°16' W 123°07'0 0.0
2015-Sep-19 16:33N 49°16' W 123°07'0 0.0
2015-Sep-19 15:33N 49°16' W 123°07'0 0.0
2015-Sep-19 14:33N 49°16' W 123°07'0 0.0
2015-Sep-19 13:33N 49°16' W 123°07'0 0.0
2015-Sep-19 12:33N 49°16' W 123°07'0 0.0
2015-Sep-19 11:33N 49°16' W 123°07'0 0.0
2015-Sep-19 10:33N 49°16' W 123°07'0 0.0
2015-Sep-19 09:33N 49°16' W 123°07'0 0.0
2015-Sep-19 08:33N 49°16' W 123°07'0 0.0
2015-Sep-19 07:33N 49°16' W 123°07'0 0.0
2015-Sep-19 06:33N 49°16' W 123°07'0 0.0
2015-Sep-19 05:33N 49°16' W 123°07'0 0.0
2015-Sep-19 04:33N 49°16' W 123°07'0 0.0
2015-Sep-19 03:33N 49°16' W 123°07'0 0.0
2015-Sep-19 02:33N 49°16' W 123°07'0 0.0
2015-Sep-19 01:33N 49°16' W 123°07'0 0.0
2015-Sep-19 00:33N 49°16' W 123°07'0 0.0
2015-Sep-18 23:33N 49°16' W 123°07'0 0.0
2015-Sep-18 22:33N 49°16' W 123°07'0 0.0
2015-Sep-18 21:33N 49°16' W 123°07'0 0.0
2015-Sep-18 20:33N 49°16' W 123°07'0 0.0
2015-Sep-18 19:33N 49°16' W 123°07'0 0.0
2015-Sep-18 18:33N 49°16' W 123°07'6 6.1
2015-Sep-18 17:33N 49°17' W 123°16'1010.1
2015-Sep-18 16:33N 49°15' W 123°31'10 9.5
2015-Sep-18 15:33N 49°13' W 123°46'  
2015-Sep-15 21:29N 49°10' W 123°56'8 7.9
2015-Sep-15 20:33N 49°06' W 123°46'1010.4
2015-Sep-15 19:34N 48°59' W 123°35'10 9.9
2015-Sep-15 18:34N 48°51' W 123°26'9 8.6
2015-Sep-15 17:33N 48°43' W 123°21'8 7.8
2015-Sep-15 16:33N 48°36' W 123°19'9 8.8
2015-Sep-15 15:34N 48°27' W 123°16'8 8.2
2015-Sep-15 14:33N 48°19' W 123°20'2 9.8
2015-Sep-15 14:19N 48°17' W 123°21'7 9.9
2015-Sep-15 13:33N 48°10' W 123°24'3 1.5
2015-Sep-15 11:21N 48°08' W 123°27'0 0.0
2015-Sep-15 10:27N 48°08' W 123°27'0 0.0
2015-Sep-15 07:27N 48°08' W 123°27'0 0.0
2015-Sep-15 04:30N 48°08' W 123°27'0 0.0
2015-Sep-15 03:09N 48°08' W 123°27'0 0.0
2015-Sep-15 02:33N 48°08' W 123°27'0 0.3
2015-Sep-15 01:33N 48°08' W 123°27'4 4.9
2015-Sep-15 00:48N 48°11' W 123°30'411.0
2015-Sep-15 00:27N 48°12' W 123°36'1310.6
2015-Sep-14 23:13N 48°18' W 123°53'2010.8
2015-Sep-14 21:20N 48°27' W 124°21'37 9.7
2015-Sep-14 17:33N 48°44' W 125°10'9 9.2
2015-Sep-14 16:33N 48°52' W 125°17'3 2.4
2015-Sep-14 15:07N 48°55' W 125°20'0 0.0
2015-Sep-14 14:31N 48°55' W 125°20'0 0.0
2015-Sep-14 13:04N 48°55' W 125°20'0 0.0
2015-Sep-14 12:25N 48°55' W 125°20'0 0.0
2015-Sep-14 11:31N 48°55' W 125°20'0 0.0
2015-Sep-14 10:28N 48°55' W 125°20'0 0.0
2015-Sep-14 09:28N 48°55' W 125°20'0 0.0
2015-Sep-14 08:25N 48°55' W 125°20'0 0.0
2015-Sep-14 07:31N 48°55' W 125°20'0 0.0
2015-Sep-14 06:28N 48°55' W 125°20'0 0.0
2015-Sep-14 05:31N 48°55' W 125°20'0 0.0
2015-Sep-14 04:31N 48°55' W 125°20'0 0.0
2015-Sep-14 01:22N 48°55' W 125°20'0 0.0
2015-Sep-14 00:31N 48°55' W 125°20'0 0.0
2015-Sep-13 23:22N 48°55' W 125°20'0 0.2
2015-Sep-13 22:31N 48°55' W 125°19'0 0.0
2015-Sep-13 21:19N 48°55' W 125°19'0 0.0
2015-Sep-13 19:13N 48°55' W 125°19'0 0.1
2015-Sep-13 17:22N 48°55' W 125°20'0 0.0
2015-Sep-13 16:28N 48°55' W 125°20'0 0.0
2015-Sep-13 15:07N 48°55' W 125°20'0 0.0
2015-Sep-13 14:22N 48°55' W 125°20'0 0.0
2015-Sep-13 12:25N 48°55' W 125°20'0 0.0
2015-Sep-13 11:31N 48°55' W 125°20'0 0.0
2015-Sep-13 10:31N 48°55' W 125°20'0 0.0
2015-Sep-13 09:28N 48°55' W 125°20'0 0.0
2015-Sep-13 08:28N 48°55' W 125°20'0 0.0
2015-Sep-13 07:22N 48°55' W 125°20'0 0.0
2015-Sep-13 06:22N 48°55' W 125°20'0 0.0
2015-Sep-13 01:04N 48°55' W 125°20'0 0.0
2015-Sep-13 00:10N 48°55' W 125°20'0 0.0
2015-Sep-12 22:25N 48°55' W 125°20'0 0.0
2015-Sep-12 21:31N 48°55' W 125°20'2 1.6
2015-Sep-12 20:33N 48°55' W 125°17'4 1.2
2015-Sep-12 17:33N 48°56' W 125°12'9 9.0
2015-Sep-12 16:33N 48°49' W 125°21'10 9.8
2015-Sep-12 15:33N 48°42' W 125°32'1 1.2
2015-Sep-12 14:33N 48°41' W 125°33'1010.2
2015-Sep-12 13:33N 48°48' W 125°22'7 7.1
2015-Sep-12 12:32N 48°55' W 125°17'0 0.0
2015-Sep-12 11:32N 48°55' W 125°17'0 0.0
2015-Sep-12 10:32N 48°55' W 125°17'0 0.0
2015-Sep-12 09:32N 48°55' W 125°17'0 0.0
2015-Sep-12 08:32N 48°55' W 125°17'0 0.0
2015-Sep-12 07:32N 48°55' W 125°17'0 0.0
2015-Sep-12 06:32N 48°55' W 125°17'0 0.0
2015-Sep-12 04:29N 48°55' W 125°17'0 0.0
2015-Sep-12 03:05N 48°55' W 125°17'0 0.0
2015-Sep-12 02:32N 48°55' W 125°17'0 0.0
2015-Sep-12 01:32N 48°55' W 125°17'0 0.0
2015-Sep-12 00:26N 48°55' W 125°17'0 0.0
2015-Sep-11 23:26N 48°55' W 125°17'0 0.0
2015-Sep-11 22:14N 48°55' W 125°17'0 0.0
2015-Sep-11 21:29N 48°55' W 125°17'  
Track history (hours):
 
Tides and Currents Weather Stations Pressure Air Temp Water Temp Dewpoint Dewpoint Depression Visibility Wind Speed Wind Dir Waves Ship Positions

Polar Bear

Last reported at 2015-Sep-21 21:08 UTC. Time now 2016-Feb-08 18:54 UTC.
Position N 49°15' W 123°34'.
Warning: this ship's position is months out of date.

Length 28 m; draft 2.3 m.

Type: Pleasure craft. MMSI: 512172000.

Date/timePositionNaut miles runAvg speedWind from/ knotsBaromVisibWave heightAir tempDewpointWater temp
2015-Sep-21 21:08N 49°15' W 123°34'13 0.6
2015-Sep-20 22:33N 49°12' W 123°53'9 9.0
2015-Sep-20 21:34N 49°14' W 123°40'9 9.4
2015-Sep-20 20:33N 49°16' W 123°25'9 9.1
2015-Sep-20 19:34N 49°17' W 123°12'3 3.1
2015-Sep-20 18:33N 49°16' W 123°07'0 0.0
2015-Sep-20 17:33N 49°16' W 123°07'0 0.0
2015-Sep-20 16:33N 49°16' W 123°07'0 0.0
2015-Sep-20 15:33N 49°16' W 123°07'0 0.0
2015-Sep-20 14:33N 49°16' W 123°07'0 0.0
2015-Sep-20 13:33N 49°16' W 123°07'0 0.0
2015-Sep-20 12:33N 49°16' W 123°07'0 0.0
2015-Sep-20 11:33N 49°16' W 123°07'0 0.0
2015-Sep-20 10:33N 49°16' W 123°07'0 0.0
2015-Sep-20 09:33N 49°16' W 123°07'0 0.0
2015-Sep-20 08:33N 49°16' W 123°07'0 0.0
2015-Sep-20 07:33N 49°16' W 123°07'0 0.0
2015-Sep-20 06:33N 49°16' W 123°07'6 5.7
2015-Sep-20 05:33N 49°20' W 123°14'5 4.8
2015-Sep-20 04:33N 49°23' W 123°20'0 0.0
2015-Sep-20 03:33N 49°23' W 123°20'0 0.1
2015-Sep-20 02:33N 49°23' W 123°20'8 7.5
2015-Sep-20 01:33N 49°19' W 123°10'3 2.9
2015-Sep-20 00:30N 49°16' W 123°07'0 0.0
2015-Sep-19 23:33N 49°16' W 123°07'0 0.0
2015-Sep-19 22:33N 49°16' W 123°07'0 0.0
2015-Sep-19 21:30N 49°16' W 123°07'0 0.0
2015-Sep-19 20:33N 49°16' W 123°07'0 0.0
2015-Sep-19 19:33N 49°16' W 123°07'0 0.0
2015-Sep-19 18:33N 49°16' W 123°07'0 0.0
2015-Sep-19 17:33N 49°16' W 123°07'0 0.0
2015-Sep-19 16:33N 49°16' W 123°07'0 0.0
2015-Sep-19 15:33N 49°16' W 123°07'0 0.0
2015-Sep-19 14:33N 49°16' W 123°07'0 0.0
2015-Sep-19 13:33N 49°16' W 123°07'0 0.0
2015-Sep-19 12:33N 49°16' W 123°07'0 0.0
2015-Sep-19 11:33N 49°16' W 123°07'0 0.0
2015-Sep-19 10:33N 49°16' W 123°07'0 0.0
2015-Sep-19 09:33N 49°16' W 123°07'0 0.0
2015-Sep-19 08:33N 49°16' W 123°07'0 0.0
2015-Sep-19 07:33N 49°16' W 123°07'0 0.0
2015-Sep-19 06:33N 49°16' W 123°07'0 0.0
2015-Sep-19 05:33N 49°16' W 123°07'0 0.0
2015-Sep-19 04:33N 49°16' W 123°07'0 0.0
2015-Sep-19 03:33N 49°16' W 123°07'0 0.0
2015-Sep-19 02:33N 49°16' W 123°07'0 0.0
2015-Sep-19 01:33N 49°16' W 123°07'0 0.0
2015-Sep-19 00:33N 49°16' W 123°07'0 0.0
2015-Sep-18 23:33N 49°16' W 123°07'0 0.0
2015-Sep-18 22:33N 49°16' W 123°07'0 0.0
2015-Sep-18 21:33N 49°16' W 123°07'0 0.0
2015-Sep-18 20:33N 49°16' W 123°07'0 0.0
2015-Sep-18 19:33N 49°16' W 123°07'0 0.0
2015-Sep-18 18:33N 49°16' W 123°07'6 6.1
2015-Sep-18 17:33N 49°17' W 123°16'1010.1
2015-Sep-18 16:33N 49°15' W 123°31'10 9.5
2015-Sep-18 15:33N 49°13' W 123°46'  
2015-Sep-15 21:29N 49°10' W 123°56'8 7.9
2015-Sep-15 20:33N 49°06' W 123°46'1010.4
2015-Sep-15 19:34N 48°59' W 123°35'10 9.9
2015-Sep-15 18:34N 48°51' W 123°26'9 8.6
2015-Sep-15 17:33N 48°43' W 123°21'8 7.8
2015-Sep-15 16:33N 48°36' W 123°19'9 8.8
2015-Sep-15 15:34N 48°27' W 123°16'8 8.2
2015-Sep-15 14:33N 48°19' W 123°20'2 9.8
2015-Sep-15 14:19N 48°17' W 123°21'7 9.9
2015-Sep-15 13:33N 48°10' W 123°24'3 1.5
2015-Sep-15 11:21N 48°08' W 123°27'0 0.0
2015-Sep-15 10:27N 48°08' W 123°27'0 0.0
2015-Sep-15 07:27N 48°08' W 123°27'0 0.0
2015-Sep-15 04:30N 48°08' W 123°27'0 0.0
2015-Sep-15 03:09N 48°08' W 123°27'0 0.0
2015-Sep-15 02:33N 48°08' W 123°27'0 0.3
2015-Sep-15 01:33N 48°08' W 123°27'4 4.9
2015-Sep-15 00:48N 48°11' W 123°30'411.0
2015-Sep-15 00:27N 48°12' W 123°36'1310.6
2015-Sep-14 23:13N 48°18' W 123°53'2010.8
2015-Sep-14 21:20N 48°27' W 124°21'37 9.7
2015-Sep-14 17:33N 48°44' W 125°10'9 9.2
2015-Sep-14 16:33N 48°52' W 125°17'3 2.4
2015-Sep-14 15:07N 48°55' W 125°20'0 0.0
2015-Sep-14 14:31N 48°55' W 125°20'0 0.0
2015-Sep-14 13:04N 48°55' W 125°20'0 0.0
2015-Sep-14 12:25N 48°55' W 125°20'0 0.0
2015-Sep-14 11:31N 48°55' W 125°20'0 0.0
2015-Sep-14 10:28N 48°55' W 125°20'0 0.0
2015-Sep-14 09:28N 48°55' W 125°20'0 0.0
2015-Sep-14 08:25N 48°55' W 125°20'0 0.0
2015-Sep-14 07:31N 48°55' W 125°20'0 0.0
2015-Sep-14 06:28N 48°55' W 125°20'0 0.0
2015-Sep-14 05:31N 48°55' W 125°20'0 0.0
2015-Sep-14 04:31N 48°55' W 125°20'0 0.0
2015-Sep-14 01:22N 48°55' W 125°20'0 0.0
2015-Sep-14 00:31N 48°55' W 125°20'0 0.0
2015-Sep-13 23:22N 48°55' W 125°20'0 0.2
2015-Sep-13 22:31N 48°55' W 125°19'0 0.0
2015-Sep-13 21:19N 48°55' W 125°19'0 0.0
2015-Sep-13 19:13N 48°55' W 125°19'0 0.1
2015-Sep-13 17:22N 48°55' W 125°20'0 0.0
2015-Sep-13 16:28N 48°55' W 125°20'0 0.0
2015-Sep-13 15:07N 48°55' W 125°20'0 0.0
2015-Sep-13 14:22N 48°55' W 125°20'0 0.0
2015-Sep-13 12:25N 48°55' W 125°20'0 0.0
2015-Sep-13 11:31N 48°55' W 125°20'0 0.0
2015-Sep-13 10:31N 48°55' W 125°20'0 0.0
2015-Sep-13 09:28N 48°55' W 125°20'0 0.0
2015-Sep-13 08:28N 48°55' W 125°20'0 0.0
2015-Sep-13 07:22N 48°55' W 125°20'0 0.0
2015-Sep-13 06:22N 48°55' W 125°20'0 0.0
2015-Sep-13 01:04N 48°55' W 125°20'0 0.0
2015-Sep-13 00:10N 48°55' W 125°20'0 0.0
2015-Sep-12 22:25N 48°55' W 125°20'0 0.0
2015-Sep-12 21:31N 48°55' W 125°20'2 1.6
2015-Sep-12 20:33N 48°55' W 125°17'4 1.2
2015-Sep-12 17:33N 48°56' W 125°12'9 9.0
2015-Sep-12 16:33N 48°49' W 125°21'10 9.8
2015-Sep-12 15:33N 48°42' W 125°32'1 1.2
2015-Sep-12 14:33N 48°41' W 125°33'1010.2
2015-Sep-12 13:33N 48°48' W 125°22'7 7.1
2015-Sep-12 12:32N 48°55' W 125°17'0 0.0
2015-Sep-12 11:32N 48°55' W 125°17'0 0.0
2015-Sep-12 10:32N 48°55' W 125°17'0 0.0
2015-Sep-12 09:32N 48°55' W 125°17'0 0.0
2015-Sep-12 08:32N 48°55' W 125°17'0 0.0
2015-Sep-12 07:32N 48°55' W 125°17'0 0.0
2015-Sep-12 06:32N 48°55' W 125°17'0 0.0
2015-Sep-12 04:29N 48°55' W 125°17'0 0.0
2015-Sep-12 03:05N 48°55' W 125°17'0 0.0
2015-Sep-12 02:32N 48°55' W 125°17'0 0.0
2015-Sep-12 01:32N 48°55' W 125°17'0 0.0
2015-Sep-12 00:26N 48°55' W 125°17'0 0.0
2015-Sep-11 23:26N 48°55' W 125°17'0 0.0
2015-Sep-11 22:14N 48°55' W 125°17'0 0.0
2015-Sep-11 21:29N 48°55' W 125°17'  

Dump ship's entire track history